Time;durP1;ratioP1;P1;durP2;ratioP2;P2;SDS_P1;SDS_P2;PMS_P1;PMS_P2;Temp;Humidity;BMP_temperature;BMP_pressure;BME280_temperature;BME280_humidity;BME280_pressure;Samples;Min_cycle;Max_cycle;Signal;HPM_P1;HPM_P2
2021/05/13 00:55:39;;;;;;;6.10;4.63;;;12.00;99.90;;;;;;4771466;29;20969;-88
2021/05/13 00:58:06;;;;;;;7.10;4.53;;;11.90;99.90;;;;;;4859896;29;20447;-87
2021/05/13 01:00:43;;;;;;;6.03;4.50;;;11.90;99.90;;;;;;4859556;29;20503;-87
2021/05/13 01:03:09;;;;;;;6.40;5.13;;;11.90;99.90;;;;;;5021339;28;20465;-87
2021/05/13 01:05:37;;;;;;;5.63;4.93;;;11.80;99.90;;;;;;5074010;28;20450;-87
2021/05/13 01:08:05;;;;;;;5.43;4.67;;;11.80;99.90;;;;;;5074077;28;20498;-87
2021/05/13 01:10:31;;;;;;;5.17;4.77;;;11.80;99.90;;;;;;5073875;28;20959;-87
2021/05/13 01:13:02;;;;;;;5.20;4.80;;;11.70;99.90;;;;;;5073667;28;20473;-87
2021/05/13 01:15:38;;;;;;;6.23;4.60;;;11.70;99.90;;;;;;5073786;28;20823;-87
2021/05/13 01:18:09;;;;;;;5.10;4.50;;;11.70;99.90;;;;;;5074177;28;20454;-87
2021/05/13 01:20:36;;;;;;;4.53;3.97;;;11.70;99.90;;;;;;5074284;28;20820;-87
2021/05/13 01:23:04;;;;;;;5.23;4.73;;;11.70;99.90;;;;;;5073714;28;20467;-87
2021/05/13 01:25:31;;;;;;;4.53;4.27;;;11.70;99.90;;;;;;5075631;28;20841;-87
2021/05/13 01:27:59;;;;;;;5.30;4.87;;;11.80;99.90;;;;;;5076575;28;20832;-87
2021/05/13 01:30:25;;;;;;;5.87;5.33;;;11.80;99.90;;;;;;5075933;28;20465;-87
2021/05/13 01:32:52;;;;;;;5.53;4.50;;;11.80;99.90;;;;;;5073766;28;20998;-87
2021/05/13 01:35:18;;;;;;;4.73;4.30;;;11.80;99.90;;;;;;5073581;28;20450;-87
2021/05/13 01:37:45;;;;;;;5.70;5.20;;;11.80;99.90;;;;;;5073382;28;20455;-86
2021/05/13 01:40:13;;;;;;;5.80;5.20;;;11.90;99.90;;;;;;5074372;28;20453;-87
2021/05/13 01:42:40;;;;;;;8.17;4.87;;;11.80;99.90;;;;;;5072999;28;20957;-87
2021/05/13 01:45:07;;;;;;;4.63;4.27;;;11.80;99.90;;;;;;5073336;28;20456;-86
2021/05/13 01:47:36;;;;;;;4.43;4.10;;;11.80;99.90;;;;;;5072988;28;20486;-86
2021/05/13 01:50:04;;;;;;;4.53;4.23;;;11.80;99.90;;;;;;5073446;28;20604;-87
2021/05/13 01:52:30;;;;;;;8.67;5.03;;;11.80;99.90;;;;;;5072930;28;20519;-87
2021/05/13 01:54:57;;;;;;;6.50;4.47;;;11.80;99.90;;;;;;5073218;28;20511;-86
2021/05/13 01:57:24;;;;;;;5.37;4.97;;;11.80;99.90;;;;;;5073330;28;20444;-86
2021/05/13 01:59:50;;;;;;;6.27;5.60;;;11.80;99.90;;;;;;5072771;28;20465;-87
2021/05/13 02:02:16;;;;;;;5.20;4.70;;;11.80;99.90;;;;;;5088665;28;20446;-86
2021/05/13 02:04:42;;;;;;;5.67;5.27;;;11.80;99.90;;;;;;5089848;28;20537;-86
2021/05/13 02:07:09;;;;;;;7.00;6.30;;;11.80;99.90;;;;;;5088833;28;21097;-86
2021/05/13 02:09:35;;;;;;;6.10;5.50;;;11.70;99.90;;;;;;5074217;28;20452;-86
2021/05/13 02:12:03;;;;;;;6.60;6.00;;;11.70;99.90;;;;;;5073283;28;20454;-86
2021/05/13 02:14:30;;;;;;;6.07;5.50;;;11.70;99.90;;;;;;5072605;28;20482;-86
2021/05/13 02:16:57;;;;;;;6.10;5.70;;;11.60;99.90;;;;;;5072858;28;20473;-87
2021/05/13 02:19:23;;;;;;;6.10;5.60;;;11.60;99.90;;;;;;5072969;28;20503;-87
2021/05/13 02:21:49;;;;;;;6.70;6.20;;;11.50;99.90;;;;;;5071974;28;20459;-86
2021/05/13 02:24:16;;;;;;;6.53;5.83;;;11.50;99.90;;;;;;5072914;28;20473;-86
2021/05/13 02:26:42;;;;;;;5.43;4.93;;;11.40;99.90;;;;;;5073130;28;20449;-87
2021/05/13 02:29:08;;;;;;;5.70;5.13;;;11.40;99.90;;;;;;5072537;28;20985;-86
2021/05/13 02:31:35;;;;;;;6.87;6.37;;;11.40;99.90;;;;;;5072639;28;20211;-87
2021/05/13 02:34:02;;;;;;;5.53;5.07;;;11.30;99.90;;;;;;5073030;28;20495;-87
2021/05/13 02:36:28;;;;;;;8.82;6.30;;;11.30;99.90;;;;;;5072785;28;20203;-87
2021/05/13 02:38:55;;;;;;;6.60;6.10;;;11.20;99.90;;;;;;5072799;28;20209;-87
2021/05/13 02:41:21;;;;;;;7.23;6.43;;;11.20;99.90;;;;;;5072429;28;20498;-86
2021/05/13 02:43:47;;;;;;;7.30;5.50;;;11.20;99.90;;;;;;5072506;28;20475;-86
2021/05/13 02:46:13;;;;;;;7.50;6.05;;;11.10;99.90;;;;;;5072878;28;20456;-87
2021/05/13 02:48:42;;;;;;;7.43;6.67;;;11.10;99.90;;;;;;5072931;28;20342;-87
2021/05/13 02:51:08;;;;;;;6.40;5.80;;;11.00;99.90;;;;;;5072667;28;20460;-87
2021/05/13 02:53:35;;;;;;;6.80;6.10;;;11.00;99.90;;;;;;5071937;28;20225;-87
2021/05/13 02:56:02;;;;;;;5.60;5.20;;;11.00;99.90;;;;;;5071815;28;20256;-87
2021/05/13 02:58:28;;;;;;;6.13;5.57;;;11.00;99.90;;;;;;5072371;28;20479;-87
2021/05/13 03:01:06;;;;;;;8.20;7.60;;;11.00;99.90;;;;;;5072709;28;20205;-87
2021/05/13 03:03:32;;;;;;;6.85;5.57;;;10.90;99.90;;;;;;5071962;28;20313;-86
2021/05/13 03:06:00;;;;;;;6.20;5.60;;;10.90;99.90;;;;;;5072351;28;20203;-86
2021/05/13 03:08:26;;;;;;;5.07;4.68;;;10.90;99.90;;;;;;5072586;28;20492;-87
2021/05/13 03:10:52;;;;;;;6.22;5.63;;;10.90;99.90;;;;;;5072473;28;20207;-85
2021/05/13 03:13:22;;;;;;;9.80;6.07;;;10.80;99.90;;;;;;5072136;28;20229;-86
2021/05/13 03:15:48;;;;;;;5.50;5.00;;;10.80;99.90;;;;;;5072499;28;20456;-87
2021/05/13 03:18:15;;;;;;;5.93;5.30;;;10.80;99.90;;;;;;5072105;28;20449;-86
2021/05/13 03:20:45;;;;;;;5.70;5.30;;;10.70;99.90;;;;;;5072256;28;20536;-86
2021/05/13 03:23:12;;;;;;;6.28;5.78;;;10.70;99.90;;;;;;5071992;28;20236;-86
2021/05/13 03:25:41;;;;;;;5.53;5.13;;;10.70;99.90;;;;;;5072387;28;20323;-87
2021/05/13 03:28:08;;;;;;;5.80;5.30;;;10.70;99.90;;;;;;5072558;28;20221;-86
2021/05/13 03:30:39;;;;;;;9.32;5.65;;;10.70;99.90;;;;;;5072446;28;20493;-86
2021/05/13 03:33:06;;;;;;;5.57;4.90;;;10.60;99.90;;;;;;5073123;28;20261;-87
2021/05/13 03:35:33;;;;;;;5.43;4.93;;;10.60;99.90;;;;;;5076436;28;20452;-86
2021/05/13 03:38:00;;;;;;;6.57;6.07;;;10.60;99.90;;;;;;5076188;28;20455;-86
2021/05/13 03:40:28;;;;;;;5.93;5.40;;;10.60;99.90;;;;;;5076353;28;20312;-86
2021/05/13 03:42:55;;;;;;;5.93;5.53;;;10.60;99.90;;;;;;5075656;28;20226;-86
2021/05/13 03:45:21;;;;;;;6.13;5.63;;;10.50;99.90;;;;;;5075976;28;20593;-86
2021/05/13 03:47:48;;;;;;;8.20;7.43;;;10.50;99.90;;;;;;5075933;28;20489;-86
2021/05/13 03:50:14;;;;;;;6.30;5.50;;;10.50;99.90;;;;;;5076202;28;20217;-87
2021/05/13 03:52:41;;;;;;;5.60;5.13;;;10.40;99.90;;;;;;5075588;28;20232;-87
2021/05/13 03:55:08;;;;;;;5.90;5.45;;;10.50;99.90;;;;;;5075712;28;20213;-86
2021/05/13 03:57:35;;;;;;;9.40;6.32;;;10.40;99.90;;;;;;5075453;28;20200;-86
2021/05/13 04:00:06;;;;;;;6.03;5.63;;;10.40;99.90;;;;;;5075833;28;20648;-86
2021/05/13 04:02:33;;;;;;;7.93;5.82;;;10.40;99.90;;;;;;5075356;28;20859;-87
2021/05/13 04:05:00;;;;;;;7.05;6.20;;;10.40;99.90;;;;;;5075974;28;20210;-86
2021/05/13 04:07:28;;;;;;;7.30;6.70;;;10.40;99.90;;;;;;5075810;28;20222;-87
2021/05/13 04:09:56;;;;;;;7.23;6.53;;;10.40;99.90;;;;;;5075405;28;20232;-87
2021/05/13 04:12:22;;;;;;;7.18;6.60;;;10.30;99.90;;;;;;5075313;28;20436;-86
2021/05/13 04:14:49;;;;;;;7.68;6.88;;;10.40;99.90;;;;;;5075309;28;20225;-87
2021/05/13 04:17:16;;;;;;;6.53;5.93;;;10.40;99.90;;;;;;5075262;28;20211;-87
2021/05/13 04:19:42;;;;;;;7.85;7.18;;;10.40;99.90;;;;;;5075057;28;20201;-87
2021/05/13 04:22:08;;;;;;;7.30;6.57;;;10.50;99.90;;;;;;5075103;28;20206;-87
2021/05/13 04:24:34;;;;;;;6.65;6.15;;;10.50;99.90;;;;;;5074805;28;20226;-87
2021/05/13 04:27:01;;;;;;;6.90;6.25;;;10.60;99.90;;;;;;5074549;28;20216;-87
2021/05/13 04:29:27;;;;;;;7.38;6.72;;;10.60;99.90;;;;;;5074337;28;20232;-87
2021/05/13 04:31:54;;;;;;;9.77;6.80;;;10.60;99.90;;;;;;5074867;28;20775;-88
2021/05/13 04:34:21;;;;;;;7.25;6.55;;;10.70;99.90;;;;;;5074485;28;20472;-87
2021/05/13 04:36:47;;;;;;;6.82;6.22;;;10.80;99.90;;;;;;5074878;28;20207;-87
2021/05/13 04:39:13;;;;;;;6.85;6.25;;;10.90;99.90;;;;;;5074796;28;20254;-88
2021/05/13 04:41:40;;;;;;;7.70;6.27;;;10.90;99.90;;;;;;5074209;28;20210;-87
2021/05/13 04:44:07;;;;;;;7.70;7.00;;;11.00;99.90;;;;;;5073889;28;20511;-87
2021/05/13 04:46:34;;;;;;;6.50;6.00;;;11.10;99.90;;;;;;5074519;28;20498;-87
2021/05/13 04:49:16;;;;;;;7.43;6.75;;;11.10;99.90;;;;;;5074413;28;20229;-87
2021/05/13 04:51:45;;;;;;;6.87;6.23;;;11.20;99.90;;;;;;5085673;28;20209;-87
2021/05/13 04:54:14;;;;;;;6.97;6.27;;;11.30;99.90;;;;;;5095926;28;20482;-86
2021/05/13 04:56:40;;;;;;;6.73;6.20;;;11.30;99.90;;;;;;5094453;28;20457;-86
2021/05/13 04:59:06;;;;;;;7.30;6.38;;;11.30;99.90;;;;;;5081724;28;20452;-87
2021/05/13 05:01:33;;;;;;;5.87;5.37;;;11.40;99.90;;;;;;5074253;28;20211;-87
2021/05/13 05:03:59;;;;;;;7.30;6.30;;;11.40;99.90;;;;;;5074452;28;20840;-88
2021/05/13 05:06:27;;;;;;;6.83;6.00;;;11.50;99.90;;;;;;5074110;28;20458;-88
2021/05/13 05:08:53;;;;;;;5.53;5.23;;;11.50;99.90;;;;;;5073774;28;20485;-87
2021/05/13 05:11:20;;;;;;;7.57;6.97;;;11.50;99.90;;;;;;5073762;28;20809;-88
2021/05/13 05:13:47;;;;;;;5.90;5.40;;;11.60;99.90;;;;;;5073323;28;20529;-88
2021/05/13 05:16:13;;;;;;;6.50;5.90;;;11.60;99.90;;;;;;5073501;28;20449;-88
2021/05/13 05:18:39;;;;;;;9.43;6.87;;;11.70;99.90;;;;;;5073342;28;20962;-88
2021/05/13 05:21:06;;;;;;;6.60;6.10;;;11.70;99.90;;;;;;5073540;28;20458;-88
2021/05/13 05:23:33;;;;;;;6.93;6.40;;;11.70;99.90;;;;;;5073249;28;20476;-88
2021/05/13 05:25:59;;;;;;;7.70;6.43;;;11.70;99.90;;;;;;5073385;28;20461;-89
2021/05/13 05:28:27;;;;;;;7.00;6.40;;;11.70;99.90;;;;;;5073094;28;20490;-87
2021/05/13 05:30:53;;;;;;;7.27;6.43;;;11.80;99.90;;;;;;5073305;28;20468;-88
2021/05/13 05:33:21;;;;;;;8.03;6.47;;;11.80;99.90;;;;;;5073152;28;20518;-88
2021/05/13 05:35:48;;;;;;;7.33;6.27;;;11.80;99.90;;;;;;5073118;28;20959;-88
2021/05/13 05:38:14;;;;;;;7.37;6.73;;;11.90;99.90;;;;;;5073227;28;20540;-88
2021/05/13 05:40:41;;;;;;;8.90;8.10;;;11.90;99.90;;;;;;5073201;28;20463;-88
2021/05/13 05:43:08;;;;;;;7.30;6.70;;;11.90;99.90;;;;;;5072690;28;20462;-88
2021/05/13 05:45:34;;;;;;;6.40;5.90;;;11.90;99.90;;;;;;5073289;28;20480;-89
2021/05/13 05:48:00;;;;;;;7.77;7.27;;;12.00;99.90;;;;;;5073000;28;20494;-88
2021/05/13 05:50:28;;;;;;;10.23;7.30;;;12.00;99.90;;;;;;5072915;28;20527;-88
2021/05/13 05:52:54;;;;;;;6.67;6.00;;;12.00;99.90;;;;;;5072521;28;20458;-88
2021/05/13 05:55:21;;;;;;;6.43;5.93;;;12.10;99.90;;;;;;5072112;28;20438;-88
2021/05/13 05:57:48;;;;;;;7.60;6.37;;;12.10;99.90;;;;;;5072669;28;20451;-89
2021/05/13 06:00:16;;;;;;;6.57;6.07;;;12.10;99.90;;;;;;5072953;28;20868;-89
2021/05/13 06:02:42;;;;;;;7.93;7.13;;;12.20;99.90;;;;;;5072451;28;20536;-89
2021/05/13 06:05:09;;;;;;;7.70;7.00;;;12.20;99.90;;;;;;5072563;28;20458;-89
2021/05/13 06:07:36;;;;;;;7.57;6.77;;;12.20;99.90;;;;;;5072746;28;20995;-88
2021/05/13 06:10:04;;;;;;;7.07;6.30;;;12.30;99.90;;;;;;5072537;28;20456;-89
2021/05/13 06:12:30;;;;;;;7.93;6.50;;;12.30;99.90;;;;;;5072217;28;20462;-88
2021/05/13 06:14:58;;;;;;;9.17;8.17;;;12.40;99.90;;;;;;5072633;28;20457;-88
2021/05/13 06:17:24;;;;;;;9.47;7.53;;;12.40;99.90;;;;;;5072661;28;20458;-88
2021/05/13 06:19:50;;;;;;;7.87;7.27;;;12.50;99.90;;;;;;5072590;28;20456;-88
2021/05/13 06:22:18;;;;;;;7.00;6.50;;;12.50;99.90;;;;;;5072269;28;20461;-88
2021/05/13 06:24:45;;;;;;;5.30;4.90;;;12.50;99.90;;;;;;5072339;28;20564;-89
2021/05/13 06:27:12;;;;;;;6.63;6.00;;;12.50;99.90;;;;;;5072370;28;20451;-87
2021/05/13 06:29:38;;;;;;;6.20;5.60;;;12.50;99.90;;;;;;5072228;28;20494;-88
2021/05/13 06:32:06;;;;;;;6.00;5.50;;;12.60;99.90;;;;;;5072052;28;20426;-88
2021/05/13 06:34:32;;;;;;;6.43;5.93;;;12.60;99.90;;;;;;5072315;28;20474;-89
2021/05/13 06:36:58;;;;;;;6.83;6.00;;;12.60;99.90;;;;;;5072326;28;20828;-88
2021/05/13 06:39:25;;;;;;;6.73;6.13;;;12.60;99.90;;;;;;5072085;28;20994;-88
2021/05/13 06:41:51;;;;;;;7.40;6.47;;;12.70;99.90;;;;;;5072071;28;20453;-89
2021/05/13 06:44:19;;;;;;;6.50;5.63;;;12.70;99.90;;;;;;5072257;28;20565;-88
2021/05/13 06:46:45;;;;;;;6.27;5.77;;;12.70;99.90;;;;;;5072182;28;20459;-88
2021/05/13 06:49:12;;;;;;;7.03;5.97;;;12.80;99.90;;;;;;5071835;28;20569;-88
2021/05/13 06:51:39;;;;;;;6.87;6.37;;;12.90;99.90;;;;;;5071951;28;20542;-89
2021/05/13 06:54:06;;;;;;;6.90;6.30;;;12.90;99.90;;;;;;5072084;28;20578;-88
2021/05/13 06:56:32;;;;;;;7.20;6.53;;;13.00;99.90;;;;;;5072283;28;20458;-89
2021/05/13 06:58:58;;;;;;;8.70;7.80;;;13.10;99.90;;;;;;5072285;28;20461;-89
2021/05/13 07:01:26;;;;;;;6.50;5.90;;;13.10;99.90;;;;;;5072039;28;20458;-89
2021/05/13 07:03:52;;;;;;;7.63;5.70;;;13.10;99.90;;;;;;5071911;28;20486;-88
2021/05/13 07:06:19;;;;;;;6.70;6.03;;;13.10;99.90;;;;;;5071929;28;20876;-89
2021/05/13 07:08:46;;;;;;;8.17;6.03;;;13.10;99.90;;;;;;5075681;28;20573;-88
2021/05/13 07:11:12;;;;;;;6.03;5.53;;;13.20;99.90;;;;;;5076142;28;20450;-89
2021/05/13 07:13:38;;;;;;;5.43;4.93;;;13.30;99.90;;;;;;5075390;28;20995;-88
2021/05/13 07:16:05;;;;;;;5.87;5.47;;;13.40;99.90;;;;;;5076247;28;20442;-89
2021/05/13 07:18:32;;;;;;;6.40;5.90;;;13.40;99.90;;;;;;5075640;28;20501;-89
2021/05/13 07:20:58;;;;;;;7.67;5.73;;;13.40;99.90;;;;;;5075804;28;20894;-89
2021/05/13 07:23:25;;;;;;;6.73;6.03;;;13.30;99.90;;;;;;5075097;28;20503;-88
2021/05/13 07:25:55;;;;;;;5.53;5.03;;;13.40;99.90;;;;;;5075152;28;20439;-88
2021/05/13 07:28:22;;;;;;;7.83;5.60;;;13.50;99.90;;;;;;5075625;28;20483;-88
2021/05/13 07:30:48;;;;;;;5.80;5.40;;;13.50;99.90;;;;;;5075455;28;20466;-88
2021/05/13 07:33:14;;;;;;;8.23;5.80;;;13.60;99.90;;;;;;5075432;28;20474;-89
2021/05/13 07:35:41;;;;;;;7.13;6.53;;;13.60;99.90;;;;;;5075571;28;20538;-89
2021/05/13 07:38:07;;;;;;;5.40;5.07;;;13.70;99.90;;;;;;5075101;28;21051;-89
2021/05/13 07:40:37;;;;;;;8.10;4.77;;;13.80;99.90;;;;;;5074945;28;20530;-88
2021/05/13 07:43:04;;;;;;;5.57;5.07;;;14.00;99.90;;;;;;5075241;28;20483;-89
2021/05/13 07:45:33;;;;;;;5.20;4.80;;;14.20;99.90;;;;;;5076287;28;20458;-89
2021/05/13 07:47:59;;;;;;;4.80;4.40;;;14.20;99.90;;;;;;5075753;28;20853;-89
2021/05/13 07:50:27;;;;;;;3.93;3.43;;;14.30;99.90;;;;;;5075359;28;20956;-89
2021/05/13 07:52:53;;;;;;;4.07;3.80;;;14.40;99.90;;;;;;5074813;28;20526;-88
2021/05/13 07:55:20;;;;;;;4.30;3.50;;;14.40;99.90;;;;;;5075014;28;20445;-88
2021/05/13 07:57:47;;;;;;;4.17;3.87;;;14.50;99.90;;;;;;5074721;28;20447;-88
2021/05/13 08:00:15;;;;;;;3.20;3.00;;;14.50;99.90;;;;;;5074903;28;20454;-86
2021/05/13 08:02:41;;;;;;;4.30;2.97;;;14.60;99.90;;;;;;5075377;28;20451;-86
2021/05/13 08:05:09;;;;;;;7.50;3.80;;;14.60;99.90;;;;;;5076039;28;20505;-85
2021/05/13 08:07:36;;;;;;;4.23;3.83;;;14.70;99.90;;;;;;5075742;28;20447;-87
2021/05/13 08:10:02;;;;;;;2.90;2.70;;;14.80;99.90;;;;;;5075474;28;20867;-87
2021/05/13 08:12:29;;;;;;;7.33;3.43;;;15.00;99.90;;;;;;5074456;28;20868;-87
2021/05/13 08:14:56;;;;;;;3.33;3.10;;;15.10;99.90;;;;;;5075075;28;20447;-87
2021/05/13 08:17:22;;;;;;;3.70;3.40;;;15.10;99.90;;;;;;5075631;28;20794;-87
2021/05/13 08:19:49;;;;;;;4.63;4.30;;;15.20;99.90;;;;;;5074217;28;20448;-87
2021/05/13 08:22:15;;;;;;;4.67;3.03;;;15.40;99.90;;;;;;5074538;28;20444;-87
2021/05/13 08:24:41;;;;;;;3.67;3.37;;;15.60;99.90;;;;;;5074903;28;20517;-87
2021/05/13 08:27:08;;;;;;;3.03;2.83;;;15.80;99.50;;;;;;5075234;28;20454;-87
2021/05/13 08:29:34;;;;;;;2.23;1.87;;;15.90;99.40;;;;;;5074768;28;20483;-87
2021/05/13 08:32:01;;;;;;;5.00;2.53;;;16.10;99.00;;;;;;5075111;28;20474;-87
2021/05/13 08:34:29;;;;;;;2.90;2.60;;;16.20;98.30;;;;;;5080887;28;20474;-89
2021/05/13 08:36:55;;;;;;;2.57;2.37;;;16.30;97.80;;;;;;5084411;28;20499;-88
2021/05/13 08:39:21;;;;;;;1.90;1.80;;;16.40;97.80;;;;;;5073341;28;20440;-88
2021/05/13 08:41:48;;;;;;;2.23;1.93;;;16.60;96.60;;;;;;5073252;28;20447;-88
2021/05/13 08:44:15;;;;;;;2.10;1.90;;;16.70;95.70;;;;;;5074990;28;20500;-88
2021/05/13 08:46:41;;;;;;;4.50;2.07;;;16.60;95.90;;;;;;5074060;28;20979;-89
2021/05/13 08:49:08;;;;;;;2.90;2.60;;;16.60;96.40;;;;;;5074194;28;20502;-88
2021/05/13 08:51:38;;;;;;;3.60;2.77;;;16.70;96.20;;;;;;5073535;28;20509;-88
2021/05/13 08:54:05;;;;;;;1.90;1.80;;;16.70;96.10;;;;;;5073883;28;20905;-88
2021/05/13 08:56:32;;;;;;;2.53;2.33;;;16.70;95.50;;;;;;5074038;28;20455;-88
2021/05/13 08:59:03;;;;;;;2.00;1.80;;;16.60;95.10;;;;;;5073574;28;20532;-87
2021/05/13 09:01:31;;;;;;;2.40;2.20;;;16.60;95.40;;;;;;5074816;28;20437;-87
2021/05/13 09:03:58;;;;;;;3.57;2.20;;;16.60;95.30;;;;;;5073760;28;20471;-86
2021/05/13 09:06:28;;;;;;;2.40;2.20;;;16.70;94.70;;;;;;5076207;28;20486;-87
2021/05/13 09:08:55;;;;;;;2.67;2.30;;;16.80;95.00;;;;;;5088280;28;20489;-86
2021/05/13 09:11:21;;;;;;;2.10;1.80;;;16.90;94.90;;;;;;5073327;28;20607;-87
2021/05/13 09:14:00;;;;;;;2.23;1.73;;;17.10;95.30;;;;;;5073561;28;20480;-87
2021/05/13 09:16:40;;;;;;;2.50;2.30;;;17.40;95.20;;;;;;5054069;28;20530;-86
2021/05/13 09:19:19;;;;;;;2.60;2.13;;;17.60;92.80;;;;;;5053552;28;20432;-87
2021/05/13 09:22:04;;;;;;;2.97;2.40;;;17.80;93.40;;;;;;5072342;28;20445;-86
2021/05/13 09:24:47;;;;;;;2.50;1.93;;;18.00;92.50;;;;;;5073088;28;21033;-85
2021/05/13 09:27:26;;;;;;;2.70;1.80;;;18.10;91.30;;;;;;5073428;28;20817;-86
2021/05/13 09:30:21;;;;;;;2.63;2.43;;;18.10;91.60;;;;;;5074794;28;20496;-86
2021/05/13 09:32:50;;;;;;;2.50;2.30;;;18.10;92.60;;;;;;5059453;28;20555;-86
2021/05/13 09:35:18;;;;;;;4.17;3.37;;;18.20;90.70;;;;;;5075204;28;20447;-86
2021/05/13 09:38:01;;;;;;;2.50;2.30;;;18.30;92.00;;;;;;5072961;28;20958;-87
2021/05/13 09:40:34;;;;;;;2.60;2.40;;;18.30;92.60;;;;;;5072653;28;20454;-87
2021/05/13 09:43:12;;;;;;;3.97;2.90;;;18.30;92.30;;;;;;5073056;28;20464;-89
2021/05/13 09:45:41;;;;;;;4.07;3.40;;;18.20;92.60;;;;;;5073544;28;20535;-88
2021/05/13 09:48:08;;;;;;;3.17;2.87;;;18.30;93.10;;;;;;5073131;28;20491;-86
2021/05/13 09:50:34;;;;;;;2.90;2.70;;;18.50;93.50;;;;;;5072197;28;21013;-87
2021/05/13 09:53:03;;;;;;;2.80;2.10;;;18.60;93.10;;;;;;5072416;28;20468;-88
2021/05/13 09:55:30;;;;;;;2.73;2.53;;;18.80;92.80;;;;;;5072802;28;20541;-87
2021/05/13 09:58:04;;;;;;;3.77;2.90;;;18.90;92.20;;;;;;5072342;28;20439;-88
2021/05/13 10:00:33;;;;;;;4.70;2.93;;;18.90;92.00;;;;;;5072312;28;20869;-87
2021/05/13 10:03:01;;;;;;;2.93;2.57;;;19.00;91.40;;;;;;5072001;28;20467;-87
2021/05/13 10:05:27;;;;;;;2.40;2.13;;;18.80;91.00;;;;;;5072298;28;21045;-87
2021/05/13 10:07:54;;;;;;;2.60;2.40;;;18.80;91.20;;;;;;5072328;28;20862;-87
2021/05/13 10:10:21;;;;;;;5.13;3.27;;;18.60;90.20;;;;;;5072385;28;20445;-87
2021/05/13 10:12:48;;;;;;;2.37;2.17;;;18.50;89.90;;;;;;5071795;28;20481;-87
2021/05/13 10:15:15;;;;;;;3.47;3.27;;;18.60;90.10;;;;;;5072370;28;20901;-87
2021/05/13 10:17:43;;;;;;;9.80;4.00;;;18.70;90.00;;;;;;5072309;28;20843;-87
2021/05/13 10:20:12;;;;;;;3.10;2.90;;;18.70;90.00;;;;;;5072093;28;20457;-87
2021/05/13 10:22:41;;;;;;;4.13;2.07;;;18.60;89.90;;;;;;5071843;28;20449;-86
2021/05/13 10:25:23;;;;;;;2.27;2.10;;;18.50;89.80;;;;;;5072209;28;20468;-87
2021/05/13 10:27:51;;;;;;;5.67;2.60;;;18.40;90.60;;;;;;5071820;28;20545;-87
2021/05/13 10:30:22;;;;;;;1.73;1.63;;;18.20;90.50;;;;;;5072188;28;20460;-87
2021/05/13 10:33:12;;;;;;;3.10;2.03;;;17.80;89.70;;;;;;5071936;28;20475;-87
2021/05/13 10:35:40;;;;;;;3.50;2.53;;;17.60;90.00;;;;;;5073448;28;20475;-86
2021/05/13 10:38:12;;;;;;;2.00;1.90;;;17.50;91.00;;;;;;5077949;28;20450;-87
2021/05/13 10:40:47;;;;;;;2.40;2.07;;;17.60;90.90;;;;;;5074334;28;20463;-87
2021/05/13 10:43:14;;;;;;;2.53;1.63;;;17.70;90.80;;;;;;5075897;28;20480;-87
2021/05/13 10:45:42;;;;;;;2.47;1.57;;;17.70;90.30;;;;;;5071919;28;20461;-88
2021/05/13 10:48:15;;;;;;;2.07;1.60;;;17.60;90.40;;;;;;5071781;28;20491;-88
2021/05/13 10:50:44;;;;;;;1.60;1.50;;;17.40;91.10;;;;;;5072139;28;20430;-87
2021/05/13 10:53:40;;;;;;;1.60;1.50;;;16.90;91.10;;;;;;5071533;28;20479;-87
2021/05/13 10:56:22;;;;;;;1.13;1.03;;;16.50;92.40;;;;;;5072039;28;20457;-87
2021/05/13 10:59:05;;;;;;;1.50;1.33;;;16.30;93.20;;;;;;5071790;28;21000;-87
2021/05/13 11:01:40;;;;;;;1.73;1.63;;;16.10;93.70;;;;;;5071785;28;20840;-87
2021/05/13 11:04:40;;;;;;;1.47;1.37;;;16.10;93.60;;;;;;5087072;22;20563;-82
2021/05/13 11:07:24;;;;;;;1.77;1.30;;;16.20;93.80;;;;;;5060502;28;20441;-82
2021/05/13 11:09:55;;;;;;;1.30;1.20;;;16.20;93.70;;;;;;5060823;28;20496;-82
2021/05/13 11:12:24;;;;;;;2.20;1.30;;;16.30;93.20;;;;;;5060306;28;20471;-82
2021/05/13 11:15:11;;;;;;;2.53;1.60;;;16.30;93.50;;;;;;5059546;28;20471;-82
2021/05/13 11:18:13;;;;;;;2.70;1.40;;;16.40;93.20;;;;;;5060352;28;20445;-81
2021/05/13 11:20:53;;;;;;;3.90;1.33;;;16.60;92.20;;;;;;5060817;28;20535;-81
2021/05/13 11:23:22;;;;;;;1.30;1.20;;;16.70;91.80;;;;;;5060913;28;20469;-80
2021/05/13 11:25:50;;;;;;;1.43;1.33;;;17.00;91.20;;;;;;5060859;28;20488;-81
2021/05/13 11:28:32;;;;;;;1.40;0.93;;;17.30;90.50;;;;;;5060617;28;20518;-80
2021/05/13 11:31:14;;;;;;;2.60;0.97;;;17.70;88.90;;;;;;5061150;28;20442;-83
2021/05/13 11:33:42;;;;;;;1.40;1.13;;;17.90;86.60;;;;;;5060602;28;20482;-83
2021/05/13 11:36:11;;;;;;;1.40;0.80;;;18.20;87.20;;;;;;5059970;28;20481;-82
2021/05/13 11:38:38;;;;;;;2.50;1.70;;;18.40;84.50;;;;;;5060371;28;20458;-83
2021/05/13 11:41:05;;;;;;;1.50;1.40;;;18.60;85.00;;;;;;5060753;28;20454;-83
2021/05/13 11:43:34;;;;;;;1.80;0.80;;;18.40;84.60;;;;;;5061244;28;20495;-80
2021/05/13 11:46:02;;;;;;;1.30;0.93;;;18.20;84.60;;;;;;5061729;28;20476;-80
2021/05/13 11:48:34;;;;;;;1.10;1.00;;;17.70;86.50;;;;;;5060657;28;21003;-83
2021/05/13 11:51:02;;;;;;;2.10;0.60;;;17.20;88.00;;;;;;5061104;28;21055;-81
2021/05/13 11:53:30;;;;;;;0.97;0.70;;;16.90;86.40;;;;;;5061797;28;20469;-82
2021/05/13 11:55:57;;;;;;;0.80;0.70;;;16.70;88.20;;;;;;5064451;28;20452;-81
2021/05/13 11:58:45;;;;;;;1.03;0.83;;;16.70;90.50;;;;;;5062908;28;20450;-83
2021/05/13 12:01:35;;;;;;;0.87;0.87;;;16.80;91.00;;;;;;5063799;28;20463;-83
2021/05/13 12:04:07;;;;;;;1.03;0.70;;;16.90;91.40;;;;;;5048022;28;20484;-83
2021/05/13 12:06:49;;;;;;;1.77;1.10;;;17.20;91.90;;;;;;5063977;28;20440;-82
2021/05/13 12:09:17;;;;;;;1.43;1.33;;;17.30;91.50;;;;;;5064509;28;20516;-82
2021/05/13 12:11:44;;;;;;;1.57;1.30;;;17.30;90.60;;;;;;5063436;28;20475;-82
2021/05/13 12:14:12;;;;;;;1.03;0.90;;;17.40;90.50;;;;;;5063826;28;20739;-82
2021/05/13 12:16:42;;;;;;;0.90;0.90;;;17.60;90.40;;;;;;5063190;28;20453;-80
2021/05/13 12:19:10;;;;;;;1.90;0.90;;;17.60;89.40;;;;;;5064093;28;20479;-82
2021/05/13 12:21:38;;;;;;;0.90;0.90;;;17.80;89.10;;;;;;5062567;28;20453;-81
2021/05/13 12:24:05;;;;;;;2.33;1.10;;;17.90;89.20;;;;;;5061803;28;20469;-81
2021/05/13 12:26:34;;;;;;;1.40;0.87;;;18.00;89.20;;;;;;5064401;28;20449;-82
2021/05/13 12:29:01;;;;;;;2.07;1.10;;;18.00;85.20;;;;;;5062049;28;20505;-82
2021/05/13 12:31:30;;;;;;;2.50;0.80;;;18.10;83.20;;;;;;5061001;28;20443;-78
2021/05/13 12:34:03;;;;;;;0.70;0.70;;;17.90;82.30;;;;;;5062548;28;20473;-82
2021/05/13 12:36:29;;;;;;;0.50;0.50;;;17.60;81.60;;;;;;5051092;28;20975;-82
2021/05/13 12:38:57;;;;;;;0.70;0.63;;;17.30;85.30;;;;;;5062502;28;20504;-81
2021/05/13 12:41:26;;;;;;;0.60;0.50;;;17.40;83.20;;;;;;5067133;28;20450;-81
2021/05/13 12:50:33;;;;;;;;;;;;;;;;;;;;;
2021/05/13 12:53:30;;;;;;;0.73;0.73;;;18.20;80.60;;;;;;5043379;28;20548;-83
2021/05/13 12:56:30;;;;;;;0.97;0.97;;;18.20;82.60;;;;;;5034030;28;20454;-84
2021/05/13 12:59:36;;;;;;;;;;;;;;;;;;;;;
2021/05/13 13:02:22;;;;;;;0.70;0.70;;;18.40;80.90;;;;;;5023174;28;20531;-85
2021/05/13 13:04:56;;;;;;;1.90;0.97;;;18.60;80.00;;;;;;5045477;28;20508;-84
2021/05/13 13:07:35;;;;;;;0.60;0.60;;;18.50;79.40;;;;;;5047403;28;20455;-84
2021/05/13 13:10:39;;;;;;;2.50;2.30;;;18.00;75.30;;;;;;5060052;28;20515;-85
2021/05/13 13:13:13;;;;;;;0.67;0.67;;;17.90;79.80;;;;;;5052860;28;20809;-84
2021/05/13 13:16:14;;;;;;;2.30;0.93;;;18.00;80.70;;;;;;5053025;28;20529;-83
2021/05/13 13:19:04;;;;;;;;;;;;;;;;;;;;;
2021/05/13 14:41:22;;;;;;;1.27;0.70;;;16.10;89.60;;;;;;4958784;28;20547;-83
2021/05/13 14:43:50;;;;;;;0.70;0.70;;;15.80;90.40;;;;;;5056974;28;20889;-84
2021/05/13 14:55:46;;;;;;;1.70;1.33;;;15.60;94.10;;;;;;4995985;28;21391;-85
2021/05/13 14:58:15;;;;;;;2.30;0.93;;;15.20;95.10;;;;;;5056533;28;20458;-83
2021/05/13 15:00:44;;;;;;;0.80;0.80;;;15.10;95.80;;;;;;5085000;28;20443;-83
2021/05/13 15:03:12;;;;;;;2.70;1.00;;;15.20;96.00;;;;;;5085318;28;20527;-83
2021/05/13 15:05:40;;;;;;;1.87;1.77;;;15.10;96.20;;;;;;5087697;28;20447;-85
2021/05/13 15:08:06;;;;;;;0.73;0.73;;;15.00;96.80;;;;;;5081844;28;20440;-84
2021/05/13 15:10:33;;;;;;;0.77;0.77;;;14.80;97.30;;;;;;5081421;28;20447;-83
2021/05/13 15:13:00;;;;;;;0.60;0.60;;;14.70;98.10;;;;;;5082835;28;20467;-85
2021/05/13 15:15:28;;;;;;;2.20;1.27;;;14.70;98.60;;;;;;5084869;28;20431;-83
2021/05/13 15:17:55;;;;;;;2.50;1.40;;;14.60;99.30;;;;;;5084189;28;20462;-84
2021/05/13 15:20:22;;;;;;;1.23;1.13;;;14.70;99.50;;;;;;5083329;28;20519;-85
2021/05/13 15:23:23;;;;;;;2.27;2.17;;;14.90;99.40;;;;;;5080193;28;20443;-85
2021/05/13 15:33:09;;;;;;;1.40;1.30;;;15.60;98.20;;;;;;4911918;29;20451;-84
2021/05/13 15:51:49;;;;;;;0.80;0.77;;;16.50;95.10;;;;;;4882824;28;21522;-83
2021/05/13 15:54:17;;;;;;;0.70;0.70;;;16.60;94.90;;;;;;5084033;28;20475;-82
2021/05/13 15:56:43;;;;;;;1.60;1.07;;;16.50;94.60;;;;;;5084920;28;20585;-81